sensor_id;sensor_type;location;lat;lon;timestamp;P1;durP1;ratioP1;P2;durP2;ratioP2
56455;SDS011;42354;53.218;6.564;2023-01-10T00:01:21;14.93;;;3.00;;
56455;SDS011;42354;53.218;6.564;2023-01-10T00:03:46;19.30;;;2.70;;
56455;SDS011;42354;53.218;6.564;2023-01-10T00:06:11;20.88;;;2.28;;
56455;SDS011;42354;53.218;6.564;2023-01-10T00:08:37;27.05;;;3.17;;
56455;SDS011;42354;53.218;6.564;2023-01-10T00:11:02;21.67;;;2.70;;
56455;SDS011;42354;53.218;6.564;2023-01-10T00:13:51;15.60;;;2.47;;
56455;SDS011;42354;53.218;6.564;2023-01-10T00:16:17;14.32;;;2.47;;
56455;SDS011;42354;53.218;6.564;2023-01-10T00:18:43;29.27;;;3.17;;
56455;SDS011;42354;53.218;6.564;2023-01-10T00:21:08;19.23;;;2.70;;
56455;SDS011;42354;53.218;6.564;2023-01-10T00:23:34;23.80;;;3.10;;
56455;SDS011;42354;53.218;6.564;2023-01-10T00:26:00;22.40;;;2.45;;
56455;SDS011;42354;53.218;6.564;2023-01-10T00:28:25;22.02;;;3.17;;
56455;SDS011;42354;53.218;6.564;2023-01-10T00:30:51;26.33;;;2.75;;
56455;SDS011;42354;53.218;6.564;2023-01-10T00:33:25;21.63;;;2.85;;
56455;SDS011;42354;53.218;6.564;2023-01-10T00:35:52;18.63;;;3.72;;
56455;SDS011;42354;53.218;6.564;2023-01-10T00:38:18;21.38;;;2.85;;
56455;SDS011;42354;53.218;6.564;2023-01-10T00:40:44;18.13;;;2.78;;
56455;SDS011;42354;53.218;6.564;2023-01-10T00:43:10;19.75;;;3.20;;
56455;SDS011;42354;53.218;6.564;2023-01-10T00:45:54;22.67;;;2.88;;
56455;SDS011;42354;53.218;6.564;2023-01-10T00:48:19;21.13;;;2.55;;
56455;SDS011;42354;53.218;6.564;2023-01-10T00:50:45;25.35;;;3.58;;
56455;SDS011;42354;53.218;6.564;2023-01-10T00:53:10;24.35;;;3.30;;
56455;SDS011;42354;53.218;6.564;2023-01-10T00:55:35;17.80;;;2.80;;
56455;SDS011;42354;53.218;6.564;2023-01-10T00:58:01;22.17;;;3.22;;
56455;SDS011;42354;53.218;6.564;2023-01-10T01:00:27;18.15;;;2.95;;
56455;SDS011;42354;53.218;6.564;2023-01-10T01:02:52;22.25;;;3.42;;
56455;SDS011;42354;53.218;6.564;2023-01-10T01:05:18;17.40;;;2.88;;
56455;SDS011;42354;53.218;6.564;2023-01-10T01:07:46;22.70;;;2.90;;
56455;SDS011;42354;53.218;6.564;2023-01-10T01:10:15;17.30;;;2.70;;
56455;SDS011;42354;53.218;6.564;2023-01-10T01:13:03;24.02;;;3.55;;
56455;SDS011;42354;53.218;6.564;2023-01-10T01:15:31;19.02;;;2.72;;
56455;SDS011;42354;53.218;6.564;2023-01-10T01:17:59;17.48;;;3.00;;
56455;SDS011;42354;53.218;6.564;2023-01-10T01:20:24;22.27;;;3.60;;
56455;SDS011;42354;53.218;6.564;2023-01-10T01:22:49;21.75;;;2.85;;
56455;SDS011;42354;53.218;6.564;2023-01-10T01:25:15;14.23;;;2.90;;
56455;SDS011;42354;53.218;6.564;2023-01-10T01:27:40;17.20;;;3.03;;
56455;SDS011;42354;53.218;6.564;2023-01-10T01:30:06;24.50;;;3.22;;
56455;SDS011;42354;53.218;6.564;2023-01-10T01:32:32;26.40;;;3.15;;
56455;SDS011;42354;53.218;6.564;2023-01-10T01:34:58;23.55;;;3.38;;
56455;SDS011;42354;53.218;6.564;2023-01-10T01:37:23;24.25;;;2.85;;
56455;SDS011;42354;53.218;6.564;2023-01-10T01:39:49;28.35;;;3.78;;
56455;SDS011;42354;53.218;6.564;2023-01-10T01:42:23;20.17;;;3.72;;
56455;SDS011;42354;53.218;6.564;2023-01-10T01:47:32;30.45;;;3.63;;
56455;SDS011;42354;53.218;6.564;2023-01-10T01:49:59;25.15;;;2.95;;
56455;SDS011;42354;53.218;6.564;2023-01-10T01:52:28;26.38;;;3.17;;
56455;SDS011;42354;53.218;6.564;2023-01-10T01:54:57;20.90;;;3.40;;
56455;SDS011;42354;53.218;6.564;2023-01-10T01:57:24;25.42;;;3.67;;
56455;SDS011;42354;53.218;6.564;2023-01-10T01:59:52;26.88;;;2.88;;
56455;SDS011;42354;53.218;6.564;2023-01-10T02:02:28;25.73;;;3.38;;
56455;SDS011;42354;53.218;6.564;2023-01-10T02:04:58;29.08;;;3.55;;
56455;SDS011;42354;53.218;6.564;2023-01-10T02:07:30;23.48;;;2.60;;
56455;SDS011;42354;53.218;6.564;2023-01-10T02:12:42;25.67;;;3.55;;
56455;SDS011;42354;53.218;6.564;2023-01-10T02:15:10;29.38;;;3.22;;
56455;SDS011;42354;53.218;6.564;2023-01-10T02:17:37;20.13;;;2.75;;
56455;SDS011;42354;53.218;6.564;2023-01-10T02:20:07;18.83;;;3.42;;
56455;SDS011;42354;53.218;6.564;2023-01-10T02:32:03;27.65;;;3.22;;
56455;SDS011;42354;53.218;6.564;2023-01-10T02:34:23;25.83;;;3.72;;
56455;SDS011;42354;53.218;6.564;2023-01-10T02:37:03;16.08;;;2.45;;
56455;SDS011;42354;53.218;6.564;2023-01-10T02:42:13;22.50;;;2.75;;
56455;SDS011;42354;53.218;6.564;2023-01-10T02:45:04;19.25;;;2.35;;
56455;SDS011;42354;53.218;6.564;2023-01-10T02:47:38;20.85;;;2.80;;
56455;SDS011;42354;53.218;6.564;2023-01-10T02:52:49;25.42;;;2.97;;
56455;SDS011;42354;53.218;6.564;2023-01-10T02:55:15;22.73;;;3.15;;
56455;SDS011;42354;53.218;6.564;2023-01-10T03:05:36;19.00;;;2.70;;
56455;SDS011;42354;53.218;6.564;2023-01-10T03:11:00;24.35;;;3.78;;
56455;SDS011;42354;53.218;6.564;2023-01-10T03:13:41;28.02;;;3.65;;
56455;SDS011;42354;53.218;6.564;2023-01-10T03:16:17;22.95;;;3.35;;
56455;SDS011;42354;53.218;6.564;2023-01-10T03:19:02;18.10;;;2.97;;
56455;SDS011;42354;53.218;6.564;2023-01-10T03:21:31;24.90;;;4.05;;
56455;SDS011;42354;53.218;6.564;2023-01-10T03:24:00;18.85;;;3.03;;
56455;SDS011;42354;53.218;6.564;2023-01-10T03:26:32;25.80;;;3.20;;
56455;SDS011;42354;53.218;6.564;2023-01-10T03:29:08;24.05;;;3.50;;
56455;SDS011;42354;53.218;6.564;2023-01-10T03:31:39;18.35;;;2.45;;
56455;SDS011;42354;53.218;6.564;2023-01-10T03:34:12;18.73;;;3.75;;
56455;SDS011;42354;53.218;6.564;2023-01-10T03:36:52;20.55;;;2.60;;
56455;SDS011;42354;53.218;6.564;2023-01-10T03:39:29;26.33;;;3.40;;
56455;SDS011;42354;53.218;6.564;2023-01-10T03:44:49;23.10;;;3.30;;
56455;SDS011;42354;53.218;6.564;2023-01-10T03:47:23;22.77;;;3.75;;
56455;SDS011;42354;53.218;6.564;2023-01-10T03:50:02;17.67;;;2.63;;
56455;SDS011;42354;53.218;6.564;2023-01-10T03:52:31;20.90;;;3.10;;
56455;SDS011;42354;53.218;6.564;2023-01-10T03:54:58;18.40;;;3.17;;
56455;SDS011;42354;53.218;6.564;2023-01-10T03:57:25;27.73;;;3.53;;
56455;SDS011;42354;53.218;6.564;2023-01-10T03:59:52;20.35;;;2.72;;
56455;SDS011;42354;53.218;6.564;2023-01-10T04:02:21;17.35;;;2.42;;
56455;SDS011;42354;53.218;6.564;2023-01-10T04:04:50;20.67;;;3.28;;
56455;SDS011;42354;53.218;6.564;2023-01-10T04:07:15;20.92;;;3.00;;
56455;SDS011;42354;53.218;6.564;2023-01-10T04:09:40;24.42;;;3.13;;
56455;SDS011;42354;53.218;6.564;2023-01-10T04:12:06;24.35;;;3.47;;
56455;SDS011;42354;53.218;6.564;2023-01-10T04:14:31;20.75;;;3.03;;
56455;SDS011;42354;53.218;6.564;2023-01-10T04:16:56;16.77;;;3.17;;
56455;SDS011;42354;53.218;6.564;2023-01-10T04:19:22;16.27;;;2.83;;
56455;SDS011;42354;53.218;6.564;2023-01-10T04:21:47;21.63;;;3.17;;
56455;SDS011;42354;53.218;6.564;2023-01-10T04:24:13;21.10;;;3.30;;
56455;SDS011;42354;53.218;6.564;2023-01-10T04:26:38;20.73;;;3.08;;
56455;SDS011;42354;53.218;6.564;2023-01-10T04:29:03;20.60;;;2.80;;
56455;SDS011;42354;53.218;6.564;2023-01-10T04:31:30;13.98;;;3.28;;
56455;SDS011;42354;53.218;6.564;2023-01-10T04:33:55;21.13;;;2.85;;
56455;SDS011;42354;53.218;6.564;2023-01-10T04:36:21;28.38;;;3.33;;
56455;SDS011;42354;53.218;6.564;2023-01-10T04:38:46;27.00;;;3.42;;
56455;SDS011;42354;53.218;6.564;2023-01-10T04:41:11;21.10;;;3.05;;
56455;SDS011;42354;53.218;6.564;2023-01-10T04:43:37;14.65;;;2.60;;
56455;SDS011;42354;53.218;6.564;2023-01-10T04:46:02;19.73;;;3.05;;
56455;SDS011;42354;53.218;6.564;2023-01-10T04:48:28;16.65;;;2.90;;
56455;SDS011;42354;53.218;6.564;2023-01-10T04:50:53;17.88;;;3.20;;
56455;SDS011;42354;53.218;6.564;2023-01-10T04:53:19;17.90;;;2.78;;
56455;SDS011;42354;53.218;6.564;2023-01-10T04:55:45;20.05;;;3.65;;
56455;SDS011;42354;53.218;6.564;2023-01-10T04:58:11;26.52;;;3.22;;
56455;SDS011;42354;53.218;6.564;2023-01-10T05:00:37;26.45;;;3.25;;
56455;SDS011;42354;53.218;6.564;2023-01-10T05:03:03;33.22;;;4.03;;
56455;SDS011;42354;53.218;6.564;2023-01-10T05:05:29;24.55;;;3.58;;
56455;SDS011;42354;53.218;6.564;2023-01-10T05:07:55;20.60;;;3.60;;
56455;SDS011;42354;53.218;6.564;2023-01-10T05:10:20;18.95;;;3.03;;
56455;SDS011;42354;53.218;6.564;2023-01-10T05:12:46;20.25;;;3.13;;
56455;SDS011;42354;53.218;6.564;2023-01-10T05:15:11;20.73;;;3.53;;
56455;SDS011;42354;53.218;6.564;2023-01-10T05:17:37;19.35;;;2.58;;
56455;SDS011;42354;53.218;6.564;2023-01-10T05:20:02;17.75;;;2.83;;
56455;SDS011;42354;53.218;6.564;2023-01-10T05:22:28;19.80;;;2.92;;
56455;SDS011;42354;53.218;6.564;2023-01-10T05:24:53;20.02;;;4.07;;
56455;SDS011;42354;53.218;6.564;2023-01-10T05:27:19;21.05;;;2.63;;
56455;SDS011;42354;53.218;6.564;2023-01-10T05:29:44;17.65;;;3.00;;
56455;SDS011;42354;53.218;6.564;2023-01-10T05:32:09;19.60;;;3.15;;
56455;SDS011;42354;53.218;6.564;2023-01-10T05:34:35;17.92;;;2.75;;
56455;SDS011;42354;53.218;6.564;2023-01-10T05:37:00;20.40;;;2.88;;
56455;SDS011;42354;53.218;6.564;2023-01-10T05:39:25;16.02;;;2.53;;
56455;SDS011;42354;53.218;6.564;2023-01-10T05:41:51;17.60;;;2.80;;
56455;SDS011;42354;53.218;6.564;2023-01-10T05:44:16;18.75;;;3.95;;
56455;SDS011;42354;53.218;6.564;2023-01-10T05:46:41;14.98;;;2.65;;
56455;SDS011;42354;53.218;6.564;2023-01-10T05:49:07;23.42;;;2.95;;
56455;SDS011;42354;53.218;6.564;2023-01-10T05:51:32;18.95;;;2.55;;
56455;SDS011;42354;53.218;6.564;2023-01-10T05:53:57;15.95;;;3.50;;
56455;SDS011;42354;53.218;6.564;2023-01-10T05:56:23;14.32;;;2.30;;
56455;SDS011;42354;53.218;6.564;2023-01-10T05:58:49;17.00;;;2.58;;
56455;SDS011;42354;53.218;6.564;2023-01-10T06:01:15;22.27;;;3.08;;
56455;SDS011;42354;53.218;6.564;2023-01-10T06:03:40;14.00;;;2.55;;
56455;SDS011;42354;53.218;6.564;2023-01-10T06:06:06;16.52;;;2.88;;
56455;SDS011;42354;53.218;6.564;2023-01-10T06:08:31;23.67;;;2.80;;
56455;SDS011;42354;53.218;6.564;2023-01-10T06:10:56;18.25;;;2.70;;
56455;SDS011;42354;53.218;6.564;2023-01-10T06:13:22;12.73;;;2.75;;
56455;SDS011;42354;53.218;6.564;2023-01-10T06:15:47;16.58;;;2.85;;
56455;SDS011;42354;53.218;6.564;2023-01-10T06:18:13;13.75;;;2.65;;
56455;SDS011;42354;53.218;6.564;2023-01-10T06:20:39;16.85;;;2.85;;
56455;SDS011;42354;53.218;6.564;2023-01-10T06:23:05;13.85;;;2.83;;
56455;SDS011;42354;53.218;6.564;2023-01-10T06:25:31;20.20;;;2.25;;
56455;SDS011;42354;53.218;6.564;2023-01-10T06:27:57;16.73;;;2.40;;
56455;SDS011;42354;53.218;6.564;2023-01-10T06:30:23;13.68;;;2.17;;
56455;SDS011;42354;53.218;6.564;2023-01-10T06:32:49;15.00;;;2.50;;
56455;SDS011;42354;53.218;6.564;2023-01-10T06:35:14;8.68;;;1.95;;
56455;SDS011;42354;53.218;6.564;2023-01-10T06:37:41;15.15;;;2.47;;
56455;SDS011;42354;53.218;6.564;2023-01-10T06:40:07;16.08;;;3.00;;
56455;SDS011;42354;53.218;6.564;2023-01-10T06:42:33;10.25;;;2.17;;
56455;SDS011;42354;53.218;6.564;2023-01-10T06:44:59;11.98;;;2.00;;
56455;SDS011;42354;53.218;6.564;2023-01-10T06:47:24;13.73;;;1.92;;
56455;SDS011;42354;53.218;6.564;2023-01-10T06:49:49;15.55;;;1.92;;
56455;SDS011;42354;53.218;6.564;2023-01-10T06:52:15;14.68;;;1.73;;
56455;SDS011;42354;53.218;6.564;2023-01-10T06:54:40;16.20;;;2.25;;
56455;SDS011;42354;53.218;6.564;2023-01-10T06:57:06;11.57;;;1.90;;
56455;SDS011;42354;53.218;6.564;2023-01-10T06:59:32;10.50;;;1.58;;
56455;SDS011;42354;53.218;6.564;2023-01-10T07:01:57;16.13;;;2.15;;
56455;SDS011;42354;53.218;6.564;2023-01-10T07:04:23;14.13;;;2.28;;
56455;SDS011;42354;53.218;6.564;2023-01-10T07:06:48;13.57;;;2.30;;
56455;SDS011;42354;53.218;6.564;2023-01-10T07:09:13;15.50;;;2.45;;
56455;SDS011;42354;53.218;6.564;2023-01-10T07:11:39;9.35;;;2.30;;
56455;SDS011;42354;53.218;6.564;2023-01-10T07:14:04;11.70;;;2.72;;
56455;SDS011;42354;53.218;6.564;2023-01-10T07:16:30;12.90;;;2.35;;
56455;SDS011;42354;53.218;6.564;2023-01-10T07:18:55;15.63;;;2.42;;
56455;SDS011;42354;53.218;6.564;2023-01-10T07:21:21;14.80;;;2.47;;
56455;SDS011;42354;53.218;6.564;2023-01-10T07:23:47;16.42;;;2.88;;
56455;SDS011;42354;53.218;6.564;2023-01-10T07:26:14;19.02;;;2.65;;
56455;SDS011;42354;53.218;6.564;2023-01-10T07:28:41;18.10;;;3.35;;
56455;SDS011;42354;53.218;6.564;2023-01-10T07:31:08;13.05;;;3.15;;
56455;SDS011;42354;53.218;6.564;2023-01-10T07:33:33;20.27;;;3.53;;
56455;SDS011;42354;53.218;6.564;2023-01-10T07:35:59;28.45;;;3.28;;
56455;SDS011;42354;53.218;6.564;2023-01-10T07:38:25;14.07;;;3.30;;
56455;SDS011;42354;53.218;6.564;2023-01-10T07:40:51;25.80;;;4.25;;
56455;SDS011;42354;53.218;6.564;2023-01-10T07:43:16;26.05;;;4.65;;
56455;SDS011;42354;53.218;6.564;2023-01-10T07:45:41;26.67;;;4.70;;
56455;SDS011;42354;53.218;6.564;2023-01-10T07:48:07;26.50;;;4.53;;
56455;SDS011;42354;53.218;6.564;2023-01-10T07:50:34;25.25;;;4.25;;
56455;SDS011;42354;53.218;6.564;2023-01-10T07:53:00;26.40;;;4.60;;
56455;SDS011;42354;53.218;6.564;2023-01-10T07:55:28;25.58;;;5.55;;
56455;SDS011;42354;53.218;6.564;2023-01-10T07:57:53;24.88;;;4.28;;
56455;SDS011;42354;53.218;6.564;2023-01-10T08:00:19;26.58;;;4.65;;
56455;SDS011;42354;53.218;6.564;2023-01-10T08:02:45;31.63;;;5.90;;
56455;SDS011;42354;53.218;6.564;2023-01-10T08:05:11;21.10;;;4.82;;
56455;SDS011;42354;53.218;6.564;2023-01-10T08:07:37;37.25;;;6.35;;
56455;SDS011;42354;53.218;6.564;2023-01-10T08:10:05;24.15;;;4.50;;
56455;SDS011;42354;53.218;6.564;2023-01-10T08:12:31;24.77;;;4.80;;
56455;SDS011;42354;53.218;6.564;2023-01-10T08:14:57;27.08;;;4.90;;
56455;SDS011;42354;53.218;6.564;2023-01-10T08:17:23;34.42;;;5.40;;
56455;SDS011;42354;53.218;6.564;2023-01-10T08:19:49;32.88;;;5.20;;
56455;SDS011;42354;53.218;6.564;2023-01-10T08:22:14;33.17;;;5.35;;
56455;SDS011;42354;53.218;6.564;2023-01-10T08:24:40;39.97;;;6.43;;
56455;SDS011;42354;53.218;6.564;2023-01-10T08:27:05;26.85;;;5.40;;
56455;SDS011;42354;53.218;6.564;2023-01-10T08:29:30;30.95;;;4.68;;
56455;SDS011;42354;53.218;6.564;2023-01-10T08:31:56;28.73;;;4.80;;
56455;SDS011;42354;53.218;6.564;2023-01-10T08:34:21;34.70;;;5.97;;
56455;SDS011;42354;53.218;6.564;2023-01-10T08:36:51;33.47;;;5.30;;
56455;SDS011;42354;53.218;6.564;2023-01-10T08:39:18;33.72;;;5.95;;
56455;SDS011;42354;53.218;6.564;2023-01-10T08:41:46;44.42;;;5.97;;
56455;SDS011;42354;53.218;6.564;2023-01-10T08:44:12;31.13;;;5.78;;
56455;SDS011;42354;53.218;6.564;2023-01-10T08:46:39;39.88;;;5.90;;
56455;SDS011;42354;53.218;6.564;2023-01-10T08:49:05;43.00;;;5.80;;
56455;SDS011;42354;53.218;6.564;2023-01-10T08:51:30;45.78;;;6.20;;
56455;SDS011;42354;53.218;6.564;2023-01-10T08:53:55;37.40;;;6.20;;
56455;SDS011;42354;53.218;6.564;2023-01-10T08:56:21;36.97;;;6.40;;
56455;SDS011;42354;53.218;6.564;2023-01-10T08:58:46;29.85;;;5.85;;
56455;SDS011;42354;53.218;6.564;2023-01-10T09:01:11;25.73;;;5.28;;
56455;SDS011;42354;53.218;6.564;2023-01-10T09:03:38;44.30;;;6.25;;
56455;SDS011;42354;53.218;6.564;2023-01-10T09:06:04;36.97;;;6.60;;
56455;SDS011;42354;53.218;6.564;2023-01-10T09:08:29;32.13;;;5.25;;
56455;SDS011;42354;53.218;6.564;2023-01-10T09:10:57;41.00;;;5.50;;
56455;SDS011;42354;53.218;6.564;2023-01-10T09:13:24;35.83;;;6.03;;
56455;SDS011;42354;53.218;6.564;2023-01-10T09:15:49;28.55;;;5.05;;
56455;SDS011;42354;53.218;6.564;2023-01-10T09:18:15;32.88;;;5.15;;
56455;SDS011;42354;53.218;6.564;2023-01-10T09:20:41;32.60;;;5.55;;
56455;SDS011;42354;53.218;6.564;2023-01-10T09:23:08;22.30;;;4.85;;
56455;SDS011;42354;53.218;6.564;2023-01-10T09:25:36;36.13;;;5.20;;
56455;SDS011;42354;53.218;6.564;2023-01-10T09:28:02;28.40;;;5.30;;
56455;SDS011;42354;53.218;6.564;2023-01-10T09:30:29;34.10;;;4.93;;
56455;SDS011;42354;53.218;6.564;2023-01-10T09:32:55;38.95;;;5.60;;
56455;SDS011;42354;53.218;6.564;2023-01-10T09:35:22;36.58;;;4.70;;
56455;SDS011;42354;53.218;6.564;2023-01-10T09:37:52;34.70;;;4.90;;
56455;SDS011;42354;53.218;6.564;2023-01-10T09:40:18;25.88;;;4.72;;
56455;SDS011;42354;53.218;6.564;2023-01-10T09:43:09;26.77;;;4.47;;
56455;SDS011;42354;53.218;6.564;2023-01-10T09:45:59;21.80;;;4.50;;
56455;SDS011;42354;53.218;6.564;2023-01-10T09:48:45;26.10;;;3.97;;
56455;SDS011;42354;53.218;6.564;2023-01-10T09:51:23;32.95;;;5.20;;
56455;SDS011;42354;53.218;6.564;2023-01-10T09:54:09;24.58;;;4.25;;
56455;SDS011;42354;53.218;6.564;2023-01-10T09:56:38;26.50;;;4.80;;
56455;SDS011;42354;53.218;6.564;2023-01-10T09:59:04;31.50;;;5.13;;
56455;SDS011;42354;53.218;6.564;2023-01-10T10:01:33;26.17;;;3.88;;
56455;SDS011;42354;53.218;6.564;2023-01-10T10:04:17;29.10;;;4.20;;
56455;SDS011;42354;53.218;6.564;2023-01-10T10:07:14;27.83;;;4.60;;
56455;SDS011;42354;53.218;6.564;2023-01-10T10:09:41;25.70;;;4.32;;
56455;SDS011;42354;53.218;6.564;2023-01-10T10:21:02;32.38;;;4.80;;
56455;SDS011;42354;53.218;6.564;2023-01-10T10:26:38;34.30;;;5.25;;
56455;SDS011;42354;53.218;6.564;2023-01-10T10:36:50;26.77;;;4.93;;
56455;SDS011;42354;53.218;6.564;2023-01-10T10:39:26;25.85;;;5.10;;
56455;SDS011;42354;53.218;6.564;2023-01-10T10:44:45;29.60;;;4.57;;
56455;SDS011;42354;53.218;6.564;2023-01-10T10:47:17;26.80;;;5.22;;
56455;SDS011;42354;53.218;6.564;2023-01-10T10:49:53;22.75;;;4.85;;
56455;SDS011;42354;53.218;6.564;2023-01-10T10:52:26;23.45;;;4.82;;
56455;SDS011;42354;53.218;6.564;2023-01-10T10:54:56;33.30;;;5.05;;
56455;SDS011;42354;53.218;6.564;2023-01-10T10:57:31;22.15;;;4.70;;
56455;SDS011;42354;53.218;6.564;2023-01-10T11:00:00;29.88;;;4.10;;
56455;SDS011;42354;53.218;6.564;2023-01-10T11:02:30;27.60;;;5.10;;
56455;SDS011;42354;53.218;6.564;2023-01-10T11:07:31;34.67;;;4.75;;
56455;SDS011;42354;53.218;6.564;2023-01-10T11:09:59;31.42;;;4.60;;
56455;SDS011;42354;53.218;6.564;2023-01-10T11:12:48;31.77;;;4.43;;
56455;SDS011;42354;53.218;6.564;2023-01-10T11:18:05;25.88;;;4.57;;
56455;SDS011;42354;53.218;6.564;2023-01-10T11:20:36;26.25;;;5.32;;
56455;SDS011;42354;53.218;6.564;2023-01-10T11:23:02;32.97;;;6.07;;
56455;SDS011;42354;53.218;6.564;2023-01-10T11:25:28;29.30;;;7.15;;
56455;SDS011;42354;53.218;6.564;2023-01-10T11:27:57;32.28;;;6.25;;
56455;SDS011;42354;53.218;6.564;2023-01-10T11:30:29;35.45;;;8.45;;
56455;SDS011;42354;53.218;6.564;2023-01-10T11:33:00;33.25;;;7.05;;
56455;SDS011;42354;53.218;6.564;2023-01-10T11:35:32;27.40;;;7.53;;
56455;SDS011;42354;53.218;6.564;2023-01-10T11:38:19;29.20;;;7.90;;
56455;SDS011;42354;53.218;6.564;2023-01-10T11:40:59;31.30;;;8.50;;
56455;SDS011;42354;53.218;6.564;2023-01-10T11:45:58;30.50;;;7.88;;
56455;SDS011;42354;53.218;6.564;2023-01-10T11:48:29;36.37;;;9.23;;
56455;SDS011;42354;53.218;6.564;2023-01-10T11:51:12;37.17;;;8.77;;
56455;SDS011;42354;53.218;6.564;2023-01-10T11:53:42;30.10;;;8.70;;
56455;SDS011;42354;53.218;6.564;2023-01-10T11:56:09;37.58;;;7.70;;
56455;SDS011;42354;53.218;6.564;2023-01-10T11:58:39;33.13;;;8.77;;
56455;SDS011;42354;53.218;6.564;2023-01-10T12:01:05;28.80;;;7.95;;
56455;SDS011;42354;53.218;6.564;2023-01-10T12:03:32;33.35;;;9.40;;
56455;SDS011;42354;53.218;6.564;2023-01-10T12:06:02;33.50;;;8.57;;
56455;SDS011;42354;53.218;6.564;2023-01-10T12:08:31;40.30;;;9.85;;
56455;SDS011;42354;53.218;6.564;2023-01-10T12:11:05;36.03;;;9.23;;
56455;SDS011;42354;53.218;6.564;2023-01-10T12:13:49;31.20;;;8.55;;
56455;SDS011;42354;53.218;6.564;2023-01-10T12:16:37;32.53;;;8.90;;
56455;SDS011;42354;53.218;6.564;2023-01-10T12:19:06;35.25;;;8.63;;
56455;SDS011;42354;53.218;6.564;2023-01-10T12:21:39;31.13;;;7.82;;
56455;SDS011;42354;53.218;6.564;2023-01-10T12:24:10;32.92;;;7.75;;
56455;SDS011;42354;53.218;6.564;2023-01-10T12:26:37;29.73;;;7.95;;
56455;SDS011;42354;53.218;6.564;2023-01-10T12:29:09;39.70;;;8.18;;
56455;SDS011;42354;53.218;6.564;2023-01-10T12:31:38;33.60;;;7.90;;
56455;SDS011;42354;53.218;6.564;2023-01-10T12:34:24;27.15;;;7.43;;
56455;SDS011;42354;53.218;6.564;2023-01-10T12:39:33;33.05;;;8.52;;
56455;SDS011;42354;53.218;6.564;2023-01-10T12:47:42;31.13;;;8.40;;
56455;SDS011;42354;53.218;6.564;2023-01-10T12:50:18;34.00;;;8.38;;
56455;SDS011;42354;53.218;6.564;2023-01-10T12:52:53;38.03;;;8.32;;
56455;SDS011;42354;53.218;6.564;2023-01-10T12:55:26;36.38;;;8.82;;
56455;SDS011;42354;53.218;6.564;2023-01-10T12:57:57;34.22;;;8.02;;
56455;SDS011;42354;53.218;6.564;2023-01-10T13:00:27;33.10;;;8.10;;
56455;SDS011;42354;53.218;6.564;2023-01-10T13:02:56;31.45;;;8.32;;
56455;SDS011;42354;53.218;6.564;2023-01-10T13:05:25;33.80;;;7.00;;
56455;SDS011;42354;53.218;6.564;2023-01-10T13:07:53;26.67;;;7.30;;
56455;SDS011;42354;53.218;6.564;2023-01-10T13:10:24;39.88;;;7.72;;
56455;SDS011;42354;53.218;6.564;2023-01-10T13:13:03;40.60;;;7.90;;
56455;SDS011;42354;53.218;6.564;2023-01-10T13:15:46;40.83;;;7.57;;
56455;SDS011;42354;53.218;6.564;2023-01-10T13:18:18;28.65;;;6.57;;
56455;SDS011;42354;53.218;6.564;2023-01-10T13:21:00;32.55;;;6.60;;
56455;SDS011;42354;53.218;6.564;2023-01-10T13:23:29;34.33;;;7.57;;
56455;SDS011;42354;53.218;6.564;2023-01-10T13:26:04;31.23;;;7.15;;
56455;SDS011;42354;53.218;6.564;2023-01-10T13:28:33;36.63;;;7.03;;
56455;SDS011;42354;53.218;6.564;2023-01-10T13:31:21;27.17;;;7.22;;
56455;SDS011;42354;53.218;6.564;2023-01-10T13:33:54;35.38;;;6.85;;
56455;SDS011;42354;53.218;6.564;2023-01-10T13:36:22;26.42;;;5.90;;
56455;SDS011;42354;53.218;6.564;2023-01-10T13:39:00;30.23;;;6.30;;
56455;SDS011;42354;53.218;6.564;2023-01-10T13:50:42;31.23;;;5.97;;
56455;SDS011;42354;53.218;6.564;2023-01-10T14:03:38;27.75;;;5.22;;
56455;SDS011;42354;53.218;6.564;2023-01-10T14:06:06;29.52;;;5.40;;
56455;SDS011;42354;53.218;6.564;2023-01-10T14:08:47;30.45;;;5.45;;
56455;SDS011;42354;53.218;6.564;2023-01-10T14:11:14;29.90;;;7.55;;
56455;SDS011;42354;53.218;6.564;2023-01-10T14:13:47;32.05;;;5.50;;
56455;SDS011;42354;53.218;6.564;2023-01-10T14:18:57;28.00;;;5.68;;
56455;SDS011;42354;53.218;6.564;2023-01-10T14:21:24;32.53;;;6.80;;
56455;SDS011;42354;53.218;6.564;2023-01-10T14:23:52;20.55;;;4.63;;
56455;SDS011;42354;53.218;6.564;2023-01-10T14:29:10;38.70;;;5.70;;
56455;SDS011;42354;53.218;6.564;2023-01-10T14:31:43;24.90;;;5.43;;
56455;SDS011;42354;53.218;6.564;2023-01-10T14:34:13;29.38;;;6.15;;
56455;SDS011;42354;53.218;6.564;2023-01-10T14:36:51;27.17;;;6.18;;
56455;SDS011;42354;53.218;6.564;2023-01-10T14:39:21;25.70;;;4.78;;
56455;SDS011;42354;53.218;6.564;2023-01-10T14:41:51;21.92;;;4.47;;
56455;SDS011;42354;53.218;6.564;2023-01-10T14:44:23;29.27;;;5.50;;
56455;SDS011;42354;53.218;6.564;2023-01-10T14:46:54;28.05;;;5.32;;
56455;SDS011;42354;53.218;6.564;2023-01-10T14:49:23;27.88;;;5.22;;
56455;SDS011;42354;53.218;6.564;2023-01-10T14:51:54;28.70;;;4.50;;
56455;SDS011;42354;53.218;6.564;2023-01-10T14:54:35;27.30;;;4.90;;
56455;SDS011;42354;53.218;6.564;2023-01-10T14:57:00;24.48;;;3.80;;
56455;SDS011;42354;53.218;6.564;2023-01-10T15:01:59;26.13;;;5.60;;
56455;SDS011;42354;53.218;6.564;2023-01-10T15:04:28;26.33;;;4.50;;
56455;SDS011;42354;53.218;6.564;2023-01-10T15:07:10;23.92;;;4.47;;
56455;SDS011;42354;53.218;6.564;2023-01-10T15:09:46;28.40;;;4.68;;
56455;SDS011;42354;53.218;6.564;2023-01-10T15:12:15;25.20;;;4.60;;
56455;SDS011;42354;53.218;6.564;2023-01-10T15:14:42;29.50;;;4.60;;
56455;SDS011;42354;53.218;6.564;2023-01-10T15:17:10;28.55;;;4.70;;
56455;SDS011;42354;53.218;6.564;2023-01-10T15:19:51;28.63;;;4.15;;
56455;SDS011;42354;53.218;6.564;2023-01-10T15:22:24;33.22;;;4.30;;
56455;SDS011;42354;53.218;6.564;2023-01-10T15:25:05;31.40;;;5.03;;
56455;SDS011;42354;53.218;6.564;2023-01-10T15:27:47;36.80;;;5.00;;
56455;SDS011;42354;53.218;6.564;2023-01-10T15:30:18;25.10;;;3.65;;
56455;SDS011;42354;53.218;6.564;2023-01-10T15:32:49;20.58;;;4.10;;
56455;SDS011;42354;53.218;6.564;2023-01-10T15:35:18;27.63;;;3.75;;
56455;SDS011;42354;53.218;6.564;2023-01-10T15:37:51;22.13;;;4.88;;
56455;SDS011;42354;53.218;6.564;2023-01-10T15:40:21;16.75;;;3.10;;
56455;SDS011;42354;53.218;6.564;2023-01-10T15:42:48;24.65;;;4.07;;
56455;SDS011;42354;53.218;6.564;2023-01-10T15:48:01;29.40;;;4.05;;
56455;SDS011;42354;53.218;6.564;2023-01-10T15:50:32;28.92;;;4.28;;
56455;SDS011;42354;53.218;6.564;2023-01-10T15:53:06;21.52;;;4.03;;
56455;SDS011;42354;53.218;6.564;2023-01-10T15:55:40;21.88;;;5.50;;
56455;SDS011;42354;53.218;6.564;2023-01-10T15:58:29;24.25;;;4.35;;
56455;SDS011;42354;53.218;6.564;2023-01-10T16:00:59;24.20;;;3.92;;
56455;SDS011;42354;53.218;6.564;2023-01-10T16:03:36;22.90;;;3.47;;
56455;SDS011;42354;53.218;6.564;2023-01-10T16:06:03;28.60;;;4.10;;
56455;SDS011;42354;53.218;6.564;2023-01-10T16:08:34;27.55;;;4.55;;
56455;SDS011;42354;53.218;6.564;2023-01-10T16:11:02;22.65;;;4.53;;
56455;SDS011;42354;53.218;6.564;2023-01-10T16:13:31;21.45;;;4.32;;
56455;SDS011;42354;53.218;6.564;2023-01-10T16:15:58;23.50;;;3.83;;
56455;SDS011;42354;53.218;6.564;2023-01-10T16:18:25;18.80;;;3.55;;
56455;SDS011;42354;53.218;6.564;2023-01-10T16:20:52;18.98;;;4.10;;
56455;SDS011;42354;53.218;6.564;2023-01-10T16:23:33;33.25;;;4.68;;
56455;SDS011;42354;53.218;6.564;2023-01-10T16:26:00;24.30;;;4.43;;
56455;SDS011;42354;53.218;6.564;2023-01-10T16:28:28;23.23;;;4.95;;
56455;SDS011;42354;53.218;6.564;2023-01-10T16:30:59;23.02;;;4.80;;